Terminal Aerodrome Forecast
Issued by NWS Sterling, VA

Current Version | Previous Version | Text Only | Print | Product List | Glossary Off
Versions: 1 2 3 4 5 6 7 8 9 10 11 12 13 14 15 16 17 18 19 20 21

000
FTUS41 KLWX 241135
TAFDCA
TAF
KDCA 241135Z 2412/2512 19007KT P6SM FEW060 SCT200
     FM241700 18013KT P6SM SCT200
     FM250300 17009KT P6SM BKN035
     FM250600 17008KT P6SM BKN025
     FM250900 17008KT P6SM BKN015=

USA.gov is the U.S. government's official web portal to all federal, state and local government web resources and services.